NPT592 LPPR-EGNX
Flight info
| Callsign | NPT592 |
|---|---|
| Flight time | N/A |
| Altitude | 36000 |
| Route | TURON P600 STG N728 KORUL DCT XIDAN DCT DOLUR DCT BAPHU DCT MONTY UN864 IVLOD DCT AMPIT |
| Aircraft | B738/M-SDE2E3FGHIRWXY/LB1 |
Departure
| Time | 2026-05-06 20:47 |
|---|---|
| Airport | Francisco de Sá Carneiro Airport (LPPR) |
Arrival
| Time | N/A |
|---|---|
| Airport | East Midlands Airport (EGNX) |
| Time | Latitude | Longitude | Altitude | Speed | Heading |
|---|---|---|---|---|---|
| 2026-05-06 19:54 | 41.23623 | -8.68470 | 215 ft | 0 kts | 259° |
| 2026-05-06 20:30 | 41.23627 | -8.68445 | 219 ft | 4 kts | 257° |
| 2026-05-06 20:31 | 41.23633 | -8.68410 | 221 ft | 4 kts | 252° |
| 2026-05-06 20:31 | 41.23643 | -8.68377 | 215 ft | 4 kts | 238° |
| 2026-05-06 20:31 | 41.23659 | -8.68354 | 217 ft | 4 kts | 186° |
| 2026-05-06 20:31 | 41.23682 | -8.68358 | 215 ft | 4 kts | 169° |
| 2026-05-06 20:32 | 41.23709 | -8.68365 | 216 ft | 4 kts | 169° |
| 2026-05-06 20:32 | 41.23735 | -8.68372 | 218 ft | 4 kts | 169° |
| 2026-05-06 20:32 | 41.23762 | -8.68379 | 217 ft | 4 kts | 169° |
| 2026-05-06 20:32 | 41.23771 | -8.68381 | 215 ft | 0 kts | 169° |
| 2026-05-06 20:35 | 41.23769 | -8.68381 | 215 ft | 1 kts | 169° |
| 2026-05-06 20:35 | 41.23735 | -8.68367 | 217 ft | 9 kts | 149° |
| 2026-05-06 20:36 | 41.23715 | -8.68271 | 219 ft | 12 kts | 88° |
| 2026-05-06 20:36 | 41.23719 | -8.68157 | 221 ft | 12 kts | 88° |
| 2026-05-06 20:36 | 41.23676 | -8.68074 | 225 ft | 13 kts | 167° |
| 2026-05-06 20:36 | 41.23577 | -8.68047 | 227 ft | 16 kts | 168° |
| 2026-05-06 20:37 | 41.23472 | -8.68020 | 230 ft | 15 kts | 167° |
| 2026-05-06 20:37 | 41.23397 | -8.67969 | 232 ft | 6 kts | 138° |
| 2026-05-06 20:37 | 41.23396 | -8.67967 | 232 ft | 0 kts | 137° |
| 2026-05-06 20:44 | 41.23382 | -8.67948 | 233 ft | 6 kts | 131° |
| 2026-05-06 20:45 | 41.23343 | -8.67875 | 234 ft | 12 kts | 123° |
| 2026-05-06 20:45 | 41.23295 | -8.67772 | 237 ft | 12 kts | 113° |
| 2026-05-06 20:45 | 41.23326 | -8.67741 | 237 ft | 8 kts | 0° |
| 2026-05-06 20:45 | 41.23369 | -8.67748 | 237 ft | 4 kts | 349° |
| 2026-05-06 20:46 | 41.23422 | -8.67762 | 239 ft | 13 kts | 349° |
| 2026-05-06 20:46 | 41.23697 | -8.67834 | 230 ft | 76 kts | 348° |
| 2026-05-06 20:46 | 41.24437 | -8.68029 | 210 ft | 138 kts | 348° |
| 2026-05-06 20:46 | 41.25487 | -8.68314 | 535 ft | 162 kts | 349° |
| 2026-05-06 20:47 | 41.26580 | -8.68590 | 1338 ft | 158 kts | 348° |
| 2026-05-06 20:47 | 41.27697 | -8.68871 | 1893 ft | 175 kts | 349° |
| 2026-05-06 20:47 | 41.28995 | -8.69199 | 2155 ft | 203 kts | 349° |
| 2026-05-06 20:47 | 41.30464 | -8.69576 | 2376 ft | 226 kts | 349° |
| 2026-05-06 20:48 | 41.32065 | -8.69994 | 2637 ft | 247 kts | 349° |
| 2026-05-06 20:48 | 41.33808 | -8.70456 | 3370 ft | 253 kts | 349° |
| 2026-05-06 20:48 | 41.35558 | -8.70923 | 4134 ft | 258 kts | 349° |
| 2026-05-06 20:48 | 41.37341 | -8.71403 | 4831 ft | 266 kts | 348° |
| 2026-05-06 20:49 | 41.39187 | -8.71766 | 5571 ft | 270 kts | 2° |
| 2026-05-06 20:49 | 41.41052 | -8.71426 | 6353 ft | 274 kts | 11° |
| 2026-05-06 20:49 | 41.42922 | -8.70955 | 7003 ft | 280 kts | 11° |
| 2026-05-06 20:49 | 41.44873 | -8.70460 | 7720 ft | 284 kts | 11° |
| 2026-05-06 20:50 | 41.46827 | -8.69975 | 8454 ft | 288 kts | 11° |
| 2026-05-06 20:50 | 41.48816 | -8.69495 | 9166 ft | 293 kts | 10° |
| 2026-05-06 20:50 | 41.50838 | -8.69017 | 9856 ft | 298 kts | 10° |
| 2026-05-06 20:50 | 41.52197 | -8.68701 | 10251 ft | 303 kts | 10° |
| 2026-05-06 20:51 | 41.54349 | -8.68204 | 10439 ft | 325 kts | 10° |
| 2026-05-06 20:51 | 41.57435 | -8.67500 | 10716 ft | 352 kts | 9° |
| 2026-05-06 20:51 | 41.59884 | -8.66945 | 11212 ft | 361 kts | 9° |
| 2026-05-06 20:51 | 41.62367 | -8.66383 | 11915 ft | 363 kts | 9° |
| 2026-05-06 20:52 | 41.64860 | -8.65820 | 12664 ft | 364 kts | 9° |
| 2026-05-06 20:52 | 41.66558 | -8.65437 | 13160 ft | 367 kts | 9° |
| 2026-05-06 20:52 | 41.69085 | -8.64867 | 13873 ft | 370 kts | 9° |
| 2026-05-06 20:52 | 41.71636 | -8.64291 | 14523 ft | 374 kts | 9° |
| 2026-05-06 20:53 | 41.74188 | -8.63715 | 15130 ft | 379 kts | 9° |
| 2026-05-06 20:53 | 41.76791 | -8.63126 | 15824 ft | 382 kts | 9° |
| 2026-05-06 20:53 | 41.79434 | -8.62527 | 16349 ft | 389 kts | 9° |
| 2026-05-06 20:53 | 41.82104 | -8.61921 | 17091 ft | 389 kts | 9° |
| 2026-05-06 20:54 | 41.84795 | -8.61311 | 17719 ft | 394 kts | 9° |
| 2026-05-06 20:54 | 41.87516 | -8.60694 | 18330 ft | 398 kts | 9° |
| 2026-05-06 20:54 | 41.90248 | -8.60073 | 18975 ft | 399 kts | 9° |
| 2026-05-06 20:54 | 41.92994 | -8.59449 | 19541 ft | 402 kts | 9° |
| 2026-05-06 20:55 | 41.95768 | -8.58817 | 20066 ft | 406 kts | 9° |
| 2026-05-06 20:55 | 41.98571 | -8.58179 | 20599 ft | 410 kts | 9° |
| 2026-05-06 20:55 | 42.01391 | -8.57536 | 21127 ft | 413 kts | 9° |
| 2026-05-06 20:55 | 42.04237 | -8.56886 | 21644 ft | 416 kts | 9° |
| 2026-05-06 20:56 | 42.07104 | -8.56232 | 22158 ft | 420 kts | 9° |
| 2026-05-06 20:56 | 42.10005 | -8.55671 | 22644 ft | 424 kts | 7° |
| 2026-05-06 20:56 | 42.12951 | -8.55211 | 23123 ft | 427 kts | 6° |
| 2026-05-06 20:56 | 42.15914 | -8.54783 | 23621 ft | 430 kts | 6° |
| 2026-05-06 20:57 | 42.18895 | -8.54351 | 24033 ft | 433 kts | 6° |
| 2026-05-06 20:57 | 42.21894 | -8.53904 | 24448 ft | 435 kts | 6° |
| 2026-05-06 20:57 | 42.24914 | -8.53440 | 24847 ft | 438 kts | 6° |
| 2026-05-06 20:57 | 42.27948 | -8.52965 | 25222 ft | 441 kts | 6° |
| 2026-05-06 20:58 | 42.31004 | -8.52481 | 25569 ft | 444 kts | 6° |
| 2026-05-06 20:58 | 42.34097 | -8.51990 | 25882 ft | 448 kts | 6° |
| 2026-05-06 20:58 | 42.37201 | -8.51495 | 26242 ft | 452 kts | 6° |
| 2026-05-06 20:58 | 42.40324 | -8.50998 | 26697 ft | 451 kts | 6° |
| 2026-05-06 20:59 | 42.43445 | -8.50500 | 27128 ft | 452 kts | 6° |
| 2026-05-06 20:59 | 42.46581 | -8.50001 | 27520 ft | 454 kts | 6° |
| 2026-05-06 20:59 | 42.49725 | -8.49500 | 27878 ft | 457 kts | 6° |
| 2026-05-06 20:59 | 42.52897 | -8.48993 | 28156 ft | 460 kts | 6° |
| 2026-05-06 21:00 | 42.56080 | -8.48479 | 28548 ft | 461 kts | 6° |
| 2026-05-06 21:00 | 42.59289 | -8.47958 | 28783 ft | 466 kts | 6° |
| 2026-05-06 21:00 | 42.62517 | -8.47432 | 29051 ft | 469 kts | 6° |
| 2026-05-06 21:00 | 42.65775 | -8.46901 | 29270 ft | 473 kts | 6° |
| 2026-05-06 21:01 | 42.69045 | -8.46368 | 29627 ft | 474 kts | 6° |
| 2026-05-06 21:01 | 42.72329 | -8.45833 | 30026 ft | 473 kts | 7° |
| 2026-05-06 21:01 | 42.75571 | -8.45304 | 30599 ft | 467 kts | 6° |
| 2026-05-06 21:01 | 42.78795 | -8.44778 | 30933 ft | 467 kts | 6° |
| 2026-05-06 21:02 | 42.82032 | -8.44248 | 31146 ft | 470 kts | 6° |
| 2026-05-06 21:02 | 42.85290 | -8.43715 | 31397 ft | 471 kts | 6° |
| 2026-05-06 21:02 | 42.88544 | -8.43182 | 31747 ft | 470 kts | 6° |
| 2026-05-06 21:02 | 42.91757 | -8.42384 | 32125 ft | 470 kts | 15° |
| 2026-05-06 21:03 | 42.94845 | -8.40943 | 32439 ft | 470 kts | 24° |
| 2026-05-06 21:03 | 42.97749 | -8.38886 | 32735 ft | 470 kts | 29° |
| 2026-05-06 21:03 | 43.00556 | -8.36711 | 33017 ft | 470 kts | 30° |
| 2026-05-06 21:03 | 43.03396 | -8.34482 | 33305 ft | 470 kts | 30° |
| 2026-05-06 21:04 | 43.06235 | -8.32258 | 33547 ft | 471 kts | 30° |
| 2026-05-06 21:04 | 43.09086 | -8.30042 | 33803 ft | 472 kts | 29° |
| 2026-05-06 21:04 | 43.11947 | -8.27835 | 34100 ft | 471 kts | 29° |
| 2026-05-06 21:04 | 43.14799 | -8.25645 | 34449 ft | 468 kts | 29° |
| 2026-05-06 21:05 | 43.17628 | -8.23476 | 34820 ft | 465 kts | 28° |
| 2026-05-06 21:05 | 43.20451 | -8.21313 | 35058 ft | 465 kts | 28° |
| 2026-05-06 21:05 | 43.23269 | -8.19152 | 35298 ft | 464 kts | 28° |
| 2026-05-06 21:05 | 43.26083 | -8.16991 | 35543 ft | 464 kts | 28° |
| 2026-05-06 21:06 | 43.28893 | -8.14830 | 35784 ft | 463 kts | 28° |
| 2026-05-06 21:06 | 43.31703 | -8.12665 | 36014 ft | 463 kts | 28° |
| 2026-05-06 21:06 | 43.34522 | -8.10492 | 36009 ft | 467 kts | 28° |
| 2026-05-06 21:07 | 43.40206 | -8.06102 | 36012 ft | 468 kts | 28° |
| 2026-05-06 21:07 | 43.45846 | -8.01736 | 36010 ft | 463 kts | 28° |
| 2026-05-06 21:08 | 43.51436 | -7.97398 | 36012 ft | 460 kts | 28° |
| 2026-05-06 21:08 | 43.56995 | -7.93076 | 36032 ft | 458 kts | 28° |
| 2026-05-06 21:09 | 43.62540 | -7.88757 | 36023 ft | 458 kts | 28° |
| 2026-05-06 21:09 | 43.68092 | -7.84422 | 36020 ft | 459 kts | 28° |
| 2026-05-06 21:10 | 43.73615 | -7.80095 | 36020 ft | 461 kts | 28° |
| 2026-05-06 21:10 | 43.79203 | -7.75708 | 36027 ft | 463 kts | 29° |
| 2026-05-06 21:11 | 43.84808 | -7.71296 | 36020 ft | 465 kts | 29° |
| 2026-05-06 21:11 | 43.90432 | -7.66860 | 36018 ft | 466 kts | 29° |
| 2026-05-06 21:12 | 43.96074 | -7.62400 | 36018 ft | 467 kts | 29° |
| 2026-05-06 21:12 | 44.01716 | -7.57930 | 36009 ft | 467 kts | 29° |
| 2026-05-06 21:13 | 44.07362 | -7.53448 | 36018 ft | 467 kts | 29° |
| 2026-05-06 21:13 | 44.12999 | -7.48963 | 36013 ft | 466 kts | 29° |
| 2026-05-06 21:14 | 44.18628 | -7.44473 | 36019 ft | 465 kts | 29° |
| 2026-05-06 21:14 | 44.24237 | -7.39990 | 36019 ft | 464 kts | 29° |
| 2026-05-06 21:15 | 44.29831 | -7.35509 | 36019 ft | 463 kts | 29° |
| 2026-05-06 21:15 | 44.35415 | -7.31026 | 36018 ft | 462 kts | 29° |
| 2026-05-06 21:16 | 44.40983 | -7.26546 | 36025 ft | 462 kts | 29° |
| 2026-05-06 21:16 | 44.46510 | -7.22089 | 36018 ft | 461 kts | 29° |
| 2026-05-06 21:17 | 44.52062 | -7.17602 | 36017 ft | 461 kts | 29° |
| 2026-05-06 21:17 | 44.57608 | -7.13110 | 36019 ft | 461 kts | 29° |
| 2026-05-06 21:18 | 44.63157 | -7.08605 | 36023 ft | 461 kts | 29° |
| 2026-05-06 21:18 | 44.68707 | -7.04089 | 36022 ft | 461 kts | 29° |
| 2026-05-06 21:19 | 44.74252 | -6.99566 | 36022 ft | 461 kts | 29° |
| 2026-05-06 21:19 | 44.79809 | -6.95025 | 36032 ft | 462 kts | 29° |
| 2026-05-06 21:20 | 44.85612 | -6.91228 | 36021 ft | 460 kts | 14° |
| 2026-05-06 21:20 | 44.91856 | -6.89274 | 36024 ft | 460 kts | 10° |
| 2026-05-06 21:21 | 44.98128 | -6.87462 | 36022 ft | 460 kts | 10° |
| 2026-05-06 21:21 | 45.04387 | -6.85599 | 36027 ft | 460 kts | 11° |
| 2026-05-06 21:22 | 45.10648 | -6.83687 | 36026 ft | 460 kts | 11° |
| 2026-05-06 21:22 | 45.16897 | -6.81758 | 36026 ft | 460 kts | 11° |
| 2026-05-06 21:23 | 45.23147 | -6.79824 | 36032 ft | 459 kts | 11° |
| 2026-05-06 21:23 | 45.29386 | -6.77890 | 36032 ft | 459 kts | 11° |
| 2026-05-06 21:24 | 45.35580 | -6.75967 | 36031 ft | 458 kts | 11° |
| 2026-05-06 21:24 | 45.41805 | -6.74031 | 36035 ft | 458 kts | 11° |
| 2026-05-06 21:25 | 45.48021 | -6.72092 | 36028 ft | 457 kts | 11° |
| 2026-05-06 21:25 | 45.54230 | -6.70152 | 36028 ft | 457 kts | 11° |
| 2026-05-06 21:26 | 45.60438 | -6.68208 | 36037 ft | 456 kts | 11° |
| 2026-05-06 21:26 | 45.66637 | -6.66262 | 36021 ft | 456 kts | 11° |
| 2026-05-06 21:27 | 45.72836 | -6.64311 | 36027 ft | 456 kts | 11° |
| 2026-05-06 21:27 | 45.79028 | -6.62358 | 36039 ft | 456 kts | 11° |
| 2026-05-06 21:28 | 45.85222 | -6.60401 | 36031 ft | 456 kts | 11° |
| 2026-05-06 21:28 | 45.91412 | -6.58440 | 36026 ft | 456 kts | 11° |
| 2026-05-06 21:29 | 45.97607 | -6.56473 | 36024 ft | 456 kts | 11° |
| 2026-05-06 21:29 | 46.03799 | -6.54502 | 36034 ft | 456 kts | 11° |
| 2026-05-06 21:30 | 46.09999 | -6.52524 | 36034 ft | 456 kts | 11° |
| 2026-05-06 21:30 | 46.16157 | -6.50556 | 36034 ft | 456 kts | 11° |
| 2026-05-06 21:31 | 46.22350 | -6.48571 | 36041 ft | 456 kts | 11° |
| 2026-05-06 21:31 | 46.28551 | -6.46579 | 36029 ft | 456 kts | 11° |
| 2026-05-06 21:32 | 46.34748 | -6.44584 | 36036 ft | 456 kts | 11° |
| 2026-05-06 21:32 | 46.44043 | -6.41583 | 36029 ft | 456 kts | 11° |
| 2026-05-06 21:33 | 46.50240 | -6.39576 | 36026 ft | 456 kts | 11° |
| 2026-05-06 21:33 | 46.56426 | -6.37568 | 36029 ft | 456 kts | 11° |
| 2026-05-06 21:34 | 46.62613 | -6.35555 | 36032 ft | 455 kts | 11° |
| 2026-05-06 21:34 | 46.68796 | -6.33539 | 36029 ft | 455 kts | 11° |
| 2026-05-06 21:35 | 46.74962 | -6.31523 | 36033 ft | 455 kts | 11° |
| 2026-05-06 21:35 | 46.81144 | -6.29498 | 36042 ft | 455 kts | 11° |
| 2026-05-06 21:36 | 46.87317 | -6.27470 | 36030 ft | 455 kts | 11° |
| 2026-05-06 21:36 | 46.93451 | -6.25451 | 36031 ft | 455 kts | 11° |
| 2026-05-06 21:37 | 46.99619 | -6.23415 | 36031 ft | 454 kts | 11° |
| 2026-05-06 21:37 | 47.05781 | -6.21312 | 36033 ft | 455 kts | 14° |
| 2026-05-06 21:38 | 47.11853 | -6.18647 | 36032 ft | 455 kts | 16° |
| 2026-05-06 21:38 | 47.17881 | -6.15806 | 36032 ft | 455 kts | 16° |
| 2026-05-06 21:39 | 47.23918 | -6.12990 | 36038 ft | 455 kts | 16° |
| 2026-05-06 21:39 | 47.29957 | -6.10212 | 36027 ft | 455 kts | 16° |
| 2026-05-06 21:40 | 47.36001 | -6.07444 | 36029 ft | 454 kts | 16° |
| 2026-05-06 21:40 | 47.41018 | -6.05143 | 36030 ft | 454 kts | 16° |
| 2026-05-06 21:41 | 47.47053 | -6.02369 | 36035 ft | 454 kts | 16° |
| 2026-05-06 21:41 | 47.53084 | -5.99588 | 36027 ft | 454 kts | 16° |
| 2026-05-06 21:42 | 47.59117 | -5.96799 | 36030 ft | 454 kts | 16° |
| 2026-05-06 21:42 | 47.65145 | -5.94006 | 36040 ft | 454 kts | 16° |
| 2026-05-06 21:43 | 47.71169 | -5.91208 | 36029 ft | 454 kts | 16° |
| 2026-05-06 21:43 | 47.77191 | -5.88404 | 36034 ft | 454 kts | 16° |
| 2026-05-06 21:44 | 47.83215 | -5.85592 | 36031 ft | 454 kts | 16° |
| 2026-05-06 21:44 | 47.89232 | -5.82777 | 36029 ft | 453 kts | 16° |
| 2026-05-06 21:45 | 47.95252 | -5.79953 | 36025 ft | 453 kts | 16° |
| 2026-05-06 21:45 | 48.01266 | -5.77126 | 36022 ft | 453 kts | 16° |
| 2026-05-06 21:46 | 48.07278 | -5.74292 | 36022 ft | 453 kts | 16° |
| 2026-05-06 21:46 | 48.13282 | -5.71455 | 36028 ft | 453 kts | 16° |
| 2026-05-06 21:47 | 48.19290 | -5.68609 | 36024 ft | 453 kts | 16° |
| 2026-05-06 21:47 | 48.25289 | -5.65760 | 36022 ft | 452 kts | 16° |
| 2026-05-06 21:48 | 48.31286 | -5.62906 | 36029 ft | 452 kts | 16° |
| 2026-05-06 21:48 | 48.37248 | -5.60061 | 36022 ft | 452 kts | 16° |
| 2026-05-06 21:49 | 48.43246 | -5.57192 | 36022 ft | 452 kts | 16° |
| 2026-05-06 21:49 | 48.49220 | -5.54327 | 36022 ft | 452 kts | 16° |
| 2026-05-06 21:50 | 48.55210 | -5.51448 | 36026 ft | 452 kts | 16° |
| 2026-05-06 21:50 | 48.61198 | -5.48562 | 36018 ft | 451 kts | 16° |
| 2026-05-06 21:51 | 48.67179 | -5.45673 | 36023 ft | 451 kts | 16° |
| 2026-05-06 21:51 | 48.73157 | -5.42777 | 36023 ft | 451 kts | 16° |
| 2026-05-06 21:52 | 48.79135 | -5.39875 | 36023 ft | 451 kts | 16° |
| 2026-05-06 21:52 | 48.85112 | -5.36965 | 36021 ft | 451 kts | 16° |
| 2026-05-06 21:53 | 48.91083 | -5.34051 | 36023 ft | 451 kts | 16° |
| 2026-05-06 21:53 | 48.97059 | -5.31128 | 36026 ft | 451 kts | 16° |
| 2026-05-06 21:54 | 49.03032 | -5.28198 | 36018 ft | 451 kts | 16° |
| 2026-05-06 21:54 | 49.09009 | -5.25259 | 36020 ft | 451 kts | 16° |
| 2026-05-06 21:55 | 49.14981 | -5.22315 | 36021 ft | 451 kts | 16° |
| 2026-05-06 21:55 | 49.20958 | -5.19362 | 36029 ft | 451 kts | 16° |
| 2026-05-06 21:56 | 49.26931 | -5.16402 | 36020 ft | 451 kts | 16° |
| 2026-05-06 21:56 | 49.32911 | -5.13431 | 36015 ft | 452 kts | 16° |
| 2026-05-06 21:57 | 49.38884 | -5.10456 | 36017 ft | 452 kts | 16° |
| 2026-05-06 21:57 | 49.44863 | -5.07471 | 36025 ft | 452 kts | 16° |
| 2026-05-06 21:58 | 49.50736 | -5.04203 | 36027 ft | 453 kts | 23° |
| 2026-05-06 21:58 | 49.56408 | -4.99972 | 36006 ft | 453 kts | 25° |
| 2026-05-06 21:59 | 49.62043 | -4.95605 | 36016 ft | 453 kts | 25° |
| 2026-05-06 21:59 | 49.67700 | -4.91286 | 36016 ft | 453 kts | 24° |
| 2026-05-06 22:00 | 49.73366 | -4.87009 | 36013 ft | 453 kts | 24° |
| 2026-05-06 22:00 | 49.79036 | -4.82738 | 36013 ft | 453 kts | 24° |
| 2026-05-06 22:01 | 49.84708 | -4.78455 | 36018 ft | 453 kts | 24° |
| 2026-05-06 22:01 | 49.90376 | -4.74161 | 36024 ft | 453 kts | 24° |
| 2026-05-06 22:02 | 49.96040 | -4.69858 | 36014 ft | 453 kts | 24° |
| 2026-05-06 22:02 | 50.01694 | -4.65550 | 36015 ft | 453 kts | 25° |
| 2026-05-06 22:03 | 50.07347 | -4.61233 | 36018 ft | 452 kts | 25° |
| 2026-05-06 22:03 | 50.12988 | -4.56913 | 36022 ft | 452 kts | 25° |
| 2026-05-06 22:04 | 50.18627 | -4.52583 | 36015 ft | 451 kts | 25° |
| 2026-05-06 22:04 | 50.24254 | -4.48251 | 36016 ft | 451 kts | 25° |
| 2026-05-06 22:05 | 50.29877 | -4.43910 | 36018 ft | 451 kts | 25° |
| 2026-05-06 22:05 | 50.35497 | -4.39561 | 36028 ft | 450 kts | 25° |
| 2026-05-06 22:06 | 50.41108 | -4.35206 | 36019 ft | 450 kts | 25° |
| 2026-05-06 22:06 | 50.46722 | -4.30838 | 36018 ft | 450 kts | 25° |
| 2026-05-06 22:07 | 50.52331 | -4.26463 | 36023 ft | 450 kts | 25° |
| 2026-05-06 22:07 | 50.57896 | -4.22109 | 36024 ft | 450 kts | 25° |
| 2026-05-06 22:08 | 50.63499 | -4.17715 | 36021 ft | 450 kts | 25° |
| 2026-05-06 22:08 | 50.69106 | -4.13305 | 36019 ft | 450 kts | 25° |
| 2026-05-06 22:09 | 50.74710 | -4.08886 | 36013 ft | 450 kts | 25° |
| 2026-05-06 22:09 | 50.80315 | -4.04454 | 36015 ft | 450 kts | 25° |
| 2026-05-06 22:10 | 50.85913 | -4.00016 | 36017 ft | 450 kts | 25° |
| 2026-05-06 22:10 | 50.91508 | -3.95568 | 36012 ft | 450 kts | 25° |
| 2026-05-06 22:11 | 50.97099 | -3.91111 | 36013 ft | 449 kts | 25° |
| 2026-05-06 22:11 | 51.02678 | -3.86651 | 36015 ft | 449 kts | 25° |
| 2026-05-06 22:12 | 51.08250 | -3.82184 | 36024 ft | 448 kts | 25° |
| 2026-05-06 22:12 | 51.13818 | -3.77710 | 36010 ft | 448 kts | 25° |
| 2026-05-06 22:13 | 51.19530 | -3.73798 | 36005 ft | 446 kts | 12° |
| 2026-05-06 22:13 | 51.25590 | -3.71805 | 36016 ft | 445 kts | 9° |
| 2026-05-06 22:14 | 51.31681 | -3.69967 | 36016 ft | 446 kts | 9° |
| 2026-05-06 22:14 | 51.37774 | -3.68067 | 36018 ft | 446 kts | 10° |
| 2026-05-06 22:15 | 51.43858 | -3.66114 | 36023 ft | 446 kts | 10° |
| 2026-05-06 22:15 | 51.49944 | -3.64139 | 36020 ft | 446 kts | 10° |
| 2026-05-06 22:16 | 51.56024 | -3.62159 | 36023 ft | 446 kts | 11° |
| 2026-05-06 22:16 | 51.62098 | -3.60177 | 36013 ft | 445 kts | 11° |
| 2026-05-06 22:17 | 51.68156 | -3.58195 | 36016 ft | 443 kts | 11° |
| 2026-05-06 22:17 | 51.74198 | -3.56214 | 36017 ft | 442 kts | 11° |
| 2026-05-06 22:18 | 51.80222 | -3.54233 | 36020 ft | 441 kts | 11° |
| 2026-05-06 22:18 | 51.86192 | -3.52265 | 36018 ft | 440 kts | 11° |
| 2026-05-06 22:19 | 51.92183 | -3.50284 | 36019 ft | 439 kts | 11° |
| 2026-05-06 22:19 | 51.98167 | -3.48300 | 36016 ft | 438 kts | 11° |
| 2026-05-06 22:20 | 52.04136 | -3.46316 | 36023 ft | 437 kts | 11° |
| 2026-05-06 22:20 | 52.10090 | -3.44332 | 36023 ft | 436 kts | 11° |
| 2026-05-06 22:21 | 52.16040 | -3.42343 | 36021 ft | 436 kts | 11° |
| 2026-05-06 22:21 | 52.21984 | -3.40351 | 36027 ft | 436 kts | 11° |
| 2026-05-06 22:22 | 52.27929 | -3.38353 | 36032 ft | 436 kts | 11° |
| 2026-05-06 22:22 | 52.33882 | -3.36347 | 36024 ft | 436 kts | 11° |
| 2026-05-06 22:23 | 52.39828 | -3.34338 | 36024 ft | 436 kts | 11° |
| 2026-05-06 22:23 | 52.45775 | -3.32322 | 36025 ft | 436 kts | 11° |
| 2026-05-06 22:24 | 52.51719 | -3.30303 | 36033 ft | 436 kts | 11° |
| 2026-05-06 22:24 | 52.57664 | -3.28277 | 36024 ft | 436 kts | 11° |
| 2026-05-06 22:25 | 52.60652 | -3.27257 | 35544 ft | 442 kts | 12° |
| 2026-05-06 22:25 | 52.63653 | -3.26231 | 34971 ft | 439 kts | 12° |
| 2026-05-06 22:25 | 52.66645 | -3.25207 | 34346 ft | 438 kts | 12° |
| 2026-05-06 22:25 | 52.69633 | -3.24182 | 33631 ft | 438 kts | 12° |
| 2026-05-06 22:26 | 52.72604 | -3.23161 | 33054 ft | 434 kts | 12° |
| 2026-05-06 22:26 | 52.75537 | -3.22152 | 32571 ft | 428 kts | 12° |
| 2026-05-06 22:26 | 52.77458 | -3.21491 | 32271 ft | 424 kts | 12° |
| 2026-05-06 22:26 | 52.80329 | -3.20501 | 31799 ft | 419 kts | 12° |
| 2026-05-06 22:27 | 52.84122 | -3.19192 | 31189 ft | 413 kts | 11° |
| 2026-05-06 22:27 | 52.85977 | -3.18551 | 30888 ft | 410 kts | 11° |
| 2026-05-06 22:27 | 52.88756 | -3.17601 | 30455 ft | 406 kts | 10° |
| 2026-05-06 22:27 | 52.91543 | -3.17061 | 29996 ft | 402 kts | 2° |
| 2026-05-06 22:28 | 52.94324 | -3.16919 | 29488 ft | 398 kts | 1° |
| 2026-05-06 22:28 | 52.97080 | -3.16770 | 29038 ft | 393 kts | 1° |
| 2026-05-06 22:28 | 52.99796 | -3.16585 | 28575 ft | 389 kts | 2° |
| 2026-05-06 22:28 | 53.02484 | -3.16365 | 28140 ft | 385 kts | 2° |
| 2026-05-06 22:29 | 53.05142 | -3.16137 | 27701 ft | 381 kts | 2° |
| 2026-05-06 22:29 | 53.07776 | -3.15913 | 27265 ft | 377 kts | 2° |
| 2026-05-06 22:29 | 53.10389 | -3.15702 | 26823 ft | 375 kts | 1° |
| 2026-05-06 22:29 | 53.12976 | -3.15913 | 26381 ft | 371 kts | 351° |
| 2026-05-06 22:30 | 53.15504 | -3.16841 | 25708 ft | 374 kts | 343° |
| 2026-05-06 22:30 | 53.18088 | -3.17487 | 24963 ft | 382 kts | 5° |
| 2026-05-06 22:30 | 53.20563 | -3.16209 | 24587 ft | 380 kts | 29° |
| 2026-05-06 22:30 | 53.22502 | -3.13237 | 24159 ft | 382 kts | 55° |
| 2026-05-06 22:31 | 53.23476 | -3.09142 | 23779 ft | 383 kts | 81° |
| 2026-05-06 22:31 | 53.23434 | -3.04724 | 23418 ft | 381 kts | 96° |
| 2026-05-06 22:31 | 53.22993 | -3.00391 | 22987 ft | 378 kts | 103° |
| 2026-05-06 22:31 | 53.22061 | -2.96327 | 22565 ft | 375 kts | 122° |
| 2026-05-06 22:32 | 53.20307 | -2.93187 | 22017 ft | 371 kts | 149° |
| 2026-05-06 22:32 | 53.17975 | -2.91484 | 21675 ft | 363 kts | 164° |
| 2026-05-06 22:32 | 53.15564 | -2.90265 | 21247 ft | 361 kts | 163° |
| 2026-05-06 22:32 | 53.13242 | -2.88681 | 20837 ft | 361 kts | 154° |
| 2026-05-06 22:33 | 53.11117 | -2.86487 | 20492 ft | 358 kts | 146° |
| 2026-05-06 22:33 | 53.08934 | -2.84540 | 19913 ft | 360 kts | 163° |
| 2026-05-06 22:33 | 53.06681 | -2.82777 | 19601 ft | 362 kts | 143° |
| 2026-05-06 22:33 | 53.05111 | -2.79509 | 19432 ft | 368 kts | 115° |
| 2026-05-06 22:34 | 53.04573 | -2.75407 | 19192 ft | 374 kts | 88° |
| 2026-05-06 22:34 | 53.04895 | -2.71071 | 18966 ft | 373 kts | 81° |
| 2026-05-06 22:34 | 53.05205 | -2.66865 | 18686 ft | 371 kts | 85° |
| 2026-05-06 22:34 | 53.05286 | -2.62594 | 18422 ft | 369 kts | 91° |
| 2026-05-06 22:35 | 53.05163 | -2.58334 | 18131 ft | 367 kts | 95° |
| 2026-05-06 22:35 | 53.04910 | -2.54128 | 17847 ft | 365 kts | 97° |
| 2026-05-06 22:35 | 53.04599 | -2.50041 | 17585 ft | 364 kts | 98° |
| 2026-05-06 22:35 | 53.04252 | -2.45832 | 17318 ft | 362 kts | 98° |
| 2026-05-06 22:36 | 53.03904 | -2.41695 | 17066 ft | 361 kts | 98° |
| 2026-05-06 22:36 | 53.03558 | -2.37574 | 16810 ft | 360 kts | 98° |
| 2026-05-06 22:36 | 53.03215 | -2.33469 | 16556 ft | 359 kts | 98° |
| 2026-05-06 22:36 | 53.02922 | -2.29366 | 16299 ft | 356 kts | 92° |
| 2026-05-06 22:37 | 53.02980 | -2.25292 | 15996 ft | 351 kts | 85° |
| 2026-05-06 22:37 | 53.03188 | -2.21203 | 15106 ft | 362 kts | 84° |
| 2026-05-06 22:37 | 53.03428 | -2.16939 | 14039 ft | 379 kts | 84° |
| 2026-05-06 22:37 | 53.03655 | -2.12502 | 12958 ft | 391 kts | 85° |
| 2026-05-06 22:38 | 53.03856 | -2.07997 | 12266 ft | 390 kts | 85° |
| 2026-05-06 22:38 | 53.04035 | -2.03554 | 11698 ft | 380 kts | 86° |
| 2026-05-06 22:38 | 53.04201 | -1.99223 | 10848 ft | 374 kts | 86° |
| 2026-05-06 22:38 | 53.04364 | -1.94925 | 9985 ft | 371 kts | 86° |
| 2026-05-06 22:39 | 53.04519 | -1.90789 | 9948 ft | 347 kts | 85° |
| 2026-05-06 22:39 | 53.04663 | -1.86924 | 9894 ft | 324 kts | 86° |
| 2026-05-06 22:39 | 53.04797 | -1.83313 | 9866 ft | 303 kts | 86° |
| 2026-05-06 22:39 | 53.04917 | -1.80086 | 9826 ft | 287 kts | 85° |
| 2026-05-06 22:40 | 53.05023 | -1.76714 | 9449 ft | 282 kts | 91° |
| 2026-05-06 22:40 | 53.04570 | -1.73587 | 9035 ft | 280 kts | 118° |
| 2026-05-06 22:40 | 53.03318 | -1.71171 | 8628 ft | 276 kts | 146° |
| 2026-05-06 22:40 | 53.01564 | -1.69984 | 8180 ft | 274 kts | 173° |
| 2026-05-06 22:41 | 52.97883 | -1.69658 | 7766 ft | 251 kts | 180° |
| 2026-05-06 22:41 | 52.96152 | -1.69584 | 7322 ft | 249 kts | 180° |
| 2026-05-06 22:41 | 52.94418 | -1.69517 | 6808 ft | 249 kts | 180° |
| 2026-05-06 22:42 | 52.92687 | -1.69454 | 6342 ft | 248 kts | 180° |
| 2026-05-06 22:42 | 52.90969 | -1.69399 | 5895 ft | 245 kts | 180° |
| 2026-05-06 22:42 | 52.89276 | -1.69358 | 5466 ft | 241 kts | 180° |
| 2026-05-06 22:42 | 52.87608 | -1.69333 | 5000 ft | 238 kts | 180° |
| 2026-05-06 22:43 | 52.85963 | -1.69134 | 4386 ft | 238 kts | 163° |
| 2026-05-06 22:43 | 52.84607 | -1.67728 | 3995 ft | 225 kts | 128° |
| 2026-05-06 22:43 | 52.83759 | -1.65710 | 3879 ft | 205 kts | 120° |
| 2026-05-06 22:43 | 52.83015 | -1.63779 | 3774 ft | 193 kts | 120° |
| 2026-05-06 22:44 | 52.82526 | -1.61852 | 3613 ft | 180 kts | 89° |
| 2026-05-06 22:44 | 52.82660 | -1.59841 | 3417 ft | 176 kts | 85° |
| 2026-05-06 22:44 | 52.82679 | -1.59162 | 3343 ft | 175 kts | 87° |